sensor_id;sensor_type;location;lat;lon;timestamp;pressure;altitude;pressure_sealevel;temperature;humidity
48794;BME280;34589;42.306;23.858;2022-08-19T15:05:46;95087.50;;;32.99;23.53
48794;BME280;34589;42.306;23.858;2022-08-19T15:07:18;95088.59;;;32.98;24.05
48794;BME280;34589;42.306;23.858;2022-08-19T15:08:50;95083.41;;;33.01;23.82
48794;BME280;34589;42.306;23.858;2022-08-19T15:10:24;95085.69;;;33.08;23.80
48794;BME280;34589;42.306;23.858;2022-08-19T15:11:56;95088.56;;;33.12;23.73
48794;BME280;34589;42.306;23.858;2022-08-19T15:13:30;95085.88;;;33.12;23.69
48794;BME280;34589;42.306;23.858;2022-08-19T15:15:05;95083.69;;;33.14;23.89
48794;BME280;34589;42.306;23.858;2022-08-19T15:16:37;95089.81;;;32.91;25.10
48794;BME280;34589;42.306;23.858;2022-08-19T15:18:13;95077.75;;;32.89;24.73
48794;BME280;34589;42.306;23.858;2022-08-19T15:19:45;95085.91;;;32.98;23.62
48794;BME280;34589;42.306;23.858;2022-08-19T15:21:17;95079.31;;;33.04;23.36
48794;BME280;34589;42.306;23.858;2022-08-19T15:22:57;95082.63;;;33.01;23.80
48794;BME280;34589;42.306;23.858;2022-08-19T15:24:32;95085.41;;;32.96;23.75
48794;BME280;34589;42.306;23.858;2022-08-19T15:26:18;95078.13;;;32.96;23.91
48794;BME280;34589;42.306;23.858;2022-08-19T15:27:51;95082.31;;;33.02;23.87
48794;BME280;34589;42.306;23.858;2022-08-19T15:29:24;95080.13;;;32.90;24.54
48794;BME280;34589;42.306;23.858;2022-08-19T15:30:57;95077.16;;;32.78;24.87
48794;BME280;34589;42.306;23.858;2022-08-19T15:32:29;95084.81;;;32.71;25.29
48794;BME280;34589;42.306;23.858;2022-08-19T15:34:03;95084.94;;;32.66;24.96
48794;BME280;34589;42.306;23.858;2022-08-19T15:35:37;95083.16;;;32.75;24.12
48794;BME280;34589;42.306;23.858;2022-08-19T15:37:11;95071.41;;;32.85;24.11
48794;BME280;34589;42.306;23.858;2022-08-19T15:38:43;95073.34;;;32.93;23.57
48794;BME280;34589;42.306;23.858;2022-08-19T15:40:17;95069.47;;;32.99;23.28
48794;BME280;34589;42.306;23.858;2022-08-19T15:41:49;95072.16;;;32.99;23.35
48794;BME280;34589;42.306;23.858;2022-08-19T15:43:21;95073.28;;;32.98;23.69
48794;BME280;34589;42.306;23.858;2022-08-19T15:44:53;95070.66;;;32.93;24.04
48794;BME280;34589;42.306;23.858;2022-08-19T15:46:31;95065.69;;;32.86;24.23
48794;BME280;34589;42.306;23.858;2022-08-19T15:48:04;95077.94;;;32.92;23.99
48794;BME280;34589;42.306;23.858;2022-08-19T15:49:36;95071.78;;;32.92;23.84
48794;BME280;34589;42.306;23.858;2022-08-19T15:51:08;95070.75;;;32.88;23.89
48794;BME280;34589;42.306;23.858;2022-08-19T15:54:20;95068.47;;;32.81;23.91
48794;BME280;34589;42.306;23.858;2022-08-19T15:55:52;95068.09;;;32.74;24.39
48794;BME280;34589;42.306;23.858;2022-08-19T15:57:24;95069.09;;;32.78;24.25
48794;BME280;34589;42.306;23.858;2022-08-19T15:58:56;95066.50;;;32.73;24.04
48794;BME280;34589;42.306;23.858;2022-08-19T16:00:47;95062.69;;;32.60;25.44
48794;BME280;34589;42.306;23.858;2022-08-19T16:02:43;95056.72;;;32.49;25.57
48794;BME280;34589;42.306;23.858;2022-08-19T16:04:34;95059.00;;;32.42;25.59
48794;BME280;34589;42.306;23.858;2022-08-19T16:06:24;95062.88;;;32.36;25.89
48794;BME280;34589;42.306;23.858;2022-08-19T16:07:56;95062.38;;;32.34;25.52
48794;BME280;34589;42.306;23.858;2022-08-19T16:09:29;95070.44;;;32.34;25.57
48794;BME280;34589;42.306;23.858;2022-08-19T16:11:01;95063.50;;;32.33;25.53
48794;BME280;34589;42.306;23.858;2022-08-19T16:12:33;95064.38;;;32.28;25.48
48794;BME280;34589;42.306;23.858;2022-08-19T16:14:07;95067.34;;;32.27;26.00
48794;BME280;34589;42.306;23.858;2022-08-19T16:15:41;95070.81;;;32.27;25.59
48794;BME280;34589;42.306;23.858;2022-08-19T16:17:14;95073.03;;;32.25;25.91
48794;BME280;34589;42.306;23.858;2022-08-19T16:18:48;95072.31;;;32.20;26.40
48794;BME280;34589;42.306;23.858;2022-08-19T16:20:25;95068.72;;;32.10;27.21
48794;BME280;34589;42.306;23.858;2022-08-19T16:21:58;95075.84;;;32.01;28.14
48794;BME280;34589;42.306;23.858;2022-08-19T16:23:29;95074.81;;;31.97;27.86
48794;BME280;34589;42.306;23.858;2022-08-19T16:25:02;95079.69;;;31.95;28.07
48794;BME280;34589;42.306;23.858;2022-08-19T16:26:35;95078.09;;;31.94;27.98
48794;BME280;34589;42.306;23.858;2022-08-19T16:28:08;95081.88;;;31.93;28.17
48794;BME280;34589;42.306;23.858;2022-08-19T16:29:41;95083.63;;;31.84;28.59
48794;BME280;34589;42.306;23.858;2022-08-19T16:31:14;95080.81;;;31.75;29.09
48794;BME280;34589;42.306;23.858;2022-08-19T16:32:46;95080.03;;;31.74;28.92
48794;BME280;34589;42.306;23.858;2022-08-19T16:34:19;95081.59;;;31.75;29.01
48794;BME280;34589;42.306;23.858;2022-08-19T16:35:52;95083.78;;;31.73;28.83
48794;BME280;34589;42.306;23.858;2022-08-19T16:37:38;95076.91;;;31.67;29.53
48794;BME280;34589;42.306;23.858;2022-08-19T16:39:11;95085.25;;;31.66;29.27
48794;BME280;34589;42.306;23.858;2022-08-19T16:40:43;95086.63;;;31.63;29.60
48794;BME280;34589;42.306;23.858;2022-08-19T16:42:25;95092.00;;;31.63;29.59
48794;BME280;34589;42.306;23.858;2022-08-19T16:43:58;95090.41;;;31.62;29.35
48794;BME280;34589;42.306;23.858;2022-08-19T16:45:30;95099.03;;;31.59;29.44
48794;BME280;34589;42.306;23.858;2022-08-19T16:47:02;95101.22;;;31.57;29.74
48794;BME280;34589;42.306;23.858;2022-08-19T16:48:35;95100.50;;;31.51;29.70
48794;BME280;34589;42.306;23.858;2022-08-19T16:50:09;95104.03;;;31.47;29.93
48794;BME280;34589;42.306;23.858;2022-08-19T16:51:42;95097.38;;;31.44;30.13
48794;BME280;34589;42.306;23.858;2022-08-19T16:53:19;95100.91;;;31.39;30.35
48794;BME280;34589;42.306;23.858;2022-08-19T16:54:53;95101.00;;;31.34;30.33
48794;BME280;34589;42.306;23.858;2022-08-19T16:56:26;95110.69;;;31.30;30.51
48794;BME280;34589;42.306;23.858;2022-08-19T16:57:59;95104.81;;;31.28;30.60
48794;BME280;34589;42.306;23.858;2022-08-19T16:59:35;95106.50;;;31.24;31.02
48794;BME280;34589;42.306;23.858;2022-08-19T17:01:15;95111.31;;;31.22;30.81
48794;BME280;34589;42.306;23.858;2022-08-19T17:02:47;95108.44;;;31.18;31.21
48794;BME280;34589;42.306;23.858;2022-08-19T17:04:19;95115.19;;;31.16;30.98
48794;BME280;34589;42.306;23.858;2022-08-19T17:05:52;95120.34;;;31.12;30.73
48794;BME280;34589;42.306;23.858;2022-08-19T17:07:26;95117.69;;;31.07;30.82
48794;BME280;34589;42.306;23.858;2022-08-19T17:08:59;95120.69;;;31.05;31.30
48794;BME280;34589;42.306;23.858;2022-08-19T17:10:33;95120.16;;;31.03;31.43
48794;BME280;34589;42.306;23.858;2022-08-19T17:12:05;95120.72;;;31.00;31.64
48794;BME280;34589;42.306;23.858;2022-08-19T17:13:38;95121.59;;;30.96;31.78
48794;BME280;34589;42.306;23.858;2022-08-19T17:15:10;95121.03;;;30.94;31.89
48794;BME280;34589;42.306;23.858;2022-08-19T17:16:42;95129.97;;;30.89;31.64
48794;BME280;34589;42.306;23.858;2022-08-19T17:18:15;95128.13;;;30.84;31.64
48794;BME280;34589;42.306;23.858;2022-08-19T17:19:48;95126.59;;;30.78;31.80
48794;BME280;34589;42.306;23.858;2022-08-19T17:21:21;95129.88;;;30.70;31.82
48794;BME280;34589;42.306;23.858;2022-08-19T17:22:53;95134.50;;;30.64;31.99
48794;BME280;34589;42.306;23.858;2022-08-19T17:24:28;95128.69;;;30.57;32.28
48794;BME280;34589;42.306;23.858;2022-08-19T17:26:00;95136.53;;;30.48;32.65
48794;BME280;34589;42.306;23.858;2022-08-19T17:27:32;95135.00;;;30.42;32.94
48794;BME280;34589;42.306;23.858;2022-08-19T17:29:05;95135.84;;;30.38;32.48
48794;BME280;34589;42.306;23.858;2022-08-19T17:30:37;95143.13;;;30.32;32.24
48794;BME280;34589;42.306;23.858;2022-08-19T17:32:10;95142.34;;;30.26;32.31
48794;BME280;34589;42.306;23.858;2022-08-19T17:33:42;95143.22;;;30.22;31.91
48794;BME280;34589;42.306;23.858;2022-08-19T17:35:20;95139.25;;;30.14;32.82
48794;BME280;34589;42.306;23.858;2022-08-19T17:36:54;95141.19;;;30.08;32.77
48794;BME280;34589;42.306;23.858;2022-08-19T17:38:30;95150.28;;;30.07;32.61
48794;BME280;34589;42.306;23.858;2022-08-19T17:40:04;95146.81;;;30.07;33.22
48794;BME280;34589;42.306;23.858;2022-08-19T17:41:38;95144.72;;;29.99;34.30
48794;BME280;34589;42.306;23.858;2022-08-19T17:43:10;95145.31;;;29.90;34.17
48794;BME280;34589;42.306;23.858;2022-08-19T17:44:43;95147.50;;;29.88;33.58
48794;BME280;34589;42.306;23.858;2022-08-19T17:46:22;95149.09;;;29.84;33.85
48794;BME280;34589;42.306;23.858;2022-08-19T17:47:54;95159.56;;;29.81;34.05
48794;BME280;34589;42.306;23.858;2022-08-19T17:49:26;95161.19;;;29.76;33.85
48794;BME280;34589;42.306;23.858;2022-08-19T17:50:59;95161.50;;;29.70;34.45
48794;BME280;34589;42.306;23.858;2022-08-19T17:52:31;95163.94;;;29.61;34.71
48794;BME280;34589;42.306;23.858;2022-08-19T17:54:04;95172.28;;;29.54;34.81
48794;BME280;34589;42.306;23.858;2022-08-19T17:55:37;95169.88;;;29.53;35.07
48794;BME280;34589;42.306;23.858;2022-08-19T17:57:09;95175.25;;;29.48;35.56
48794;BME280;34589;42.306;23.858;2022-08-19T17:58:41;95179.84;;;29.42;35.00
48794;BME280;34589;42.306;23.858;2022-08-19T18:00:17;95187.88;;;29.42;35.18
48794;BME280;34589;42.306;23.858;2022-08-19T18:01:49;95175.03;;;29.39;35.10
48794;BME280;34589;42.306;23.858;2022-08-19T18:03:25;95183.34;;;29.37;35.44
48794;BME280;34589;42.306;23.858;2022-08-19T18:05:02;95184.72;;;29.30;35.28
48794;BME280;34589;42.306;23.858;2022-08-19T18:06:34;95186.31;;;29.26;35.37
48794;BME280;34589;42.306;23.858;2022-08-19T18:08:08;95194.09;;;29.22;35.63
48794;BME280;34589;42.306;23.858;2022-08-19T18:09:41;95186.63;;;29.19;35.83
48794;BME280;34589;42.306;23.858;2022-08-19T18:11:20;95196.53;;;29.18;35.53
48794;BME280;34589;42.306;23.858;2022-08-19T18:12:53;95192.25;;;29.17;35.87
48794;BME280;34589;42.306;23.858;2022-08-19T18:14:29;95190.06;;;29.14;36.13
48794;BME280;34589;42.306;23.858;2022-08-19T18:16:04;95197.56;;;29.12;36.30
48794;BME280;34589;42.306;23.858;2022-08-19T18:17:41;95201.63;;;29.04;36.26
48794;BME280;34589;42.306;23.858;2022-08-19T18:19:15;95198.16;;;28.99;35.68
48794;BME280;34589;42.306;23.858;2022-08-19T18:20:47;95205.13;;;28.90;36.40
48794;BME280;34589;42.306;23.858;2022-08-19T18:23:58;95205.97;;;28.80;36.89
48794;BME280;34589;42.306;23.858;2022-08-19T18:25:33;95212.66;;;28.72;37.00
48794;BME280;34589;42.306;23.858;2022-08-19T18:27:06;95215.84;;;28.69;36.73
48794;BME280;34589;42.306;23.858;2022-08-19T18:28:39;95220.16;;;28.60;36.99
48794;BME280;34589;42.306;23.858;2022-08-19T18:30:21;95208.66;;;28.54;36.96
48794;BME280;34589;42.306;23.858;2022-08-19T18:31:54;95212.91;;;28.50;37.80
48794;BME280;34589;42.306;23.858;2022-08-19T18:33:28;95214.81;;;28.39;38.26
48794;BME280;34589;42.306;23.858;2022-08-19T18:35:01;95220.16;;;28.34;38.06
48794;BME280;34589;42.306;23.858;2022-08-19T18:36:33;95208.38;;;28.35;38.22
48794;BME280;34589;42.306;23.858;2022-08-19T18:38:23;95212.94;;;28.24;38.38
48794;BME280;34589;42.306;23.858;2022-08-19T18:40:17;95223.88;;;28.23;38.42
48794;BME280;34589;42.306;23.858;2022-08-19T18:42:12;95212.09;;;28.19;38.57
48794;BME280;34589;42.306;23.858;2022-08-19T18:44:02;95213.47;;;28.06;39.60
48794;BME280;34589;42.306;23.858;2022-08-19T18:45:54;95212.94;;;28.09;39.20
48794;BME280;34589;42.306;23.858;2022-08-19T18:47:45;95214.78;;;28.13;38.70
48794;BME280;34589;42.306;23.858;2022-08-19T18:49:36;95219.06;;;28.09;38.05
48794;BME280;34589;42.306;23.858;2022-08-19T18:51:09;95216.38;;;28.04;38.34
48794;BME280;34589;42.306;23.858;2022-08-19T18:52:41;95216.13;;;27.96;38.61
48794;BME280;34589;42.306;23.858;2022-08-19T18:54:13;95212.63;;;27.95;38.63
48794;BME280;34589;42.306;23.858;2022-08-19T18:55:45;95222.78;;;27.98;38.71
48794;BME280;34589;42.306;23.858;2022-08-19T18:57:20;95226.78;;;28.01;38.60
48794;BME280;34589;42.306;23.858;2022-08-19T18:58:59;95228.09;;;27.93;39.11
48794;BME280;34589;42.306;23.858;2022-08-19T19:00:32;95230.72;;;27.88;39.52
48794;BME280;34589;42.306;23.858;2022-08-19T19:02:08;95228.31;;;27.86;39.50
48794;BME280;34589;42.306;23.858;2022-08-19T19:03:43;95225.66;;;27.86;39.52
48794;BME280;34589;42.306;23.858;2022-08-19T19:05:17;95231.25;;;27.85;39.54
48794;BME280;34589;42.306;23.858;2022-08-19T19:06:51;95237.66;;;27.79;39.43
48794;BME280;34589;42.306;23.858;2022-08-19T19:08:24;95243.00;;;27.79;39.34
48794;BME280;34589;42.306;23.858;2022-08-19T19:09:59;95240.59;;;27.72;39.30
48794;BME280;34589;42.306;23.858;2022-08-19T19:11:33;95244.81;;;27.63;39.54
48794;BME280;34589;42.306;23.858;2022-08-19T19:13:05;95245.59;;;27.58;39.63
48794;BME280;34589;42.306;23.858;2022-08-19T19:14:38;95254.69;;;27.57;40.06
48794;BME280;34589;42.306;23.858;2022-08-19T19:16:20;95254.91;;;27.50;39.97
48794;BME280;34589;42.306;23.858;2022-08-19T19:17:55;95260.22;;;27.40;39.81
48794;BME280;34589;42.306;23.858;2022-08-19T19:19:31;95259.34;;;27.29;39.55
48794;BME280;34589;42.306;23.858;2022-08-19T19:21:03;95264.63;;;27.24;39.82
48794;BME280;34589;42.306;23.858;2022-08-19T19:22:37;95265.13;;;27.21;40.44
48794;BME280;34589;42.306;23.858;2022-08-19T19:24:10;95265.66;;;27.18;40.54
48794;BME280;34589;42.306;23.858;2022-08-19T19:25:45;95267.75;;;27.11;40.60
48794;BME280;34589;42.306;23.858;2022-08-19T19:27:22;95269.34;;;27.07;40.86
48794;BME280;34589;42.306;23.858;2022-08-19T19:28:54;95263.72;;;27.08;40.93
48794;BME280;34589;42.306;23.858;2022-08-19T19:30:27;95268.81;;;27.10;41.19
48794;BME280;34589;42.306;23.858;2022-08-19T19:32:03;95279.72;;;27.08;40.95
48794;BME280;34589;42.306;23.858;2022-08-19T19:33:35;95275.22;;;27.09;40.61
48794;BME280;34589;42.306;23.858;2022-08-19T19:35:08;95274.44;;;27.13;40.71
48794;BME280;34589;42.306;23.858;2022-08-19T19:36:42;95272.03;;;27.12;41.17
48794;BME280;34589;42.306;23.858;2022-08-19T19:38:14;95286.63;;;27.04;41.62
48794;BME280;34589;42.306;23.858;2022-08-19T19:39:46;95283.97;;;27.04;41.18
48794;BME280;34589;42.306;23.858;2022-08-19T19:41:19;95290.63;;;27.01;41.28
48794;BME280;34589;42.306;23.858;2022-08-19T19:42:55;95285.53;;;26.95;41.93
48794;BME280;34589;42.306;23.858;2022-08-19T19:44:28;95296.19;;;26.95;42.00
48794;BME280;34589;42.306;23.858;2022-08-19T19:46:03;95292.16;;;26.92;41.69
48794;BME280;34589;42.306;23.858;2022-08-19T19:47:37;95290.00;;;26.89;41.42
48794;BME280;34589;42.306;23.858;2022-08-19T19:49:11;95297.50;;;26.92;41.49
48794;BME280;34589;42.306;23.858;2022-08-19T19:50:43;95292.13;;;26.87;42.07
48794;BME280;34589;42.306;23.858;2022-08-19T19:52:25;95296.34;;;26.83;41.70
48794;BME280;34589;42.306;23.858;2022-08-19T19:53:57;95291.84;;;26.83;41.57
48794;BME280;34589;42.306;23.858;2022-08-19T19:55:30;95292.31;;;26.75;41.78
48794;BME280;34589;42.306;23.858;2022-08-19T19:57:03;95300.25;;;26.70;41.96
48794;BME280;34589;42.306;23.858;2022-08-19T19:58:36;95300.94;;;26.60;41.86
48794;BME280;34589;42.306;23.858;2022-08-19T20:00:09;95305.84;;;26.41;42.49
48794;BME280;34589;42.306;23.858;2022-08-19T20:01:43;95303.19;;;26.41;42.14
48794;BME280;34589;42.306;23.858;2022-08-19T20:03:17;95309.34;;;26.47;41.99
48794;BME280;34589;42.306;23.858;2022-08-19T20:04:51;95303.00;;;26.48;42.49
48794;BME280;34589;42.306;23.858;2022-08-19T20:06:24;95308.06;;;26.50;42.61
48794;BME280;34589;42.306;23.858;2022-08-19T20:08:00;95306.78;;;26.57;41.97
48794;BME280;34589;42.306;23.858;2022-08-19T20:09:51;95309.97;;;26.59;41.99
48794;BME280;34589;42.306;23.858;2022-08-19T20:11:44;95313.44;;;26.55;41.86
48794;BME280;34589;42.306;23.858;2022-08-19T20:13:17;95317.44;;;26.57;42.10
48794;BME280;34589;42.306;23.858;2022-08-19T20:14:49;95327.03;;;26.58;41.47
48794;BME280;34589;42.306;23.858;2022-08-19T20:16:22;95325.41;;;26.57;41.92
48794;BME280;34589;42.306;23.858;2022-08-19T20:17:57;95331.25;;;26.54;42.19
48794;BME280;34589;42.306;23.858;2022-08-19T20:19:34;95328.09;;;26.57;41.69
48794;BME280;34589;42.306;23.858;2022-08-19T20:21:07;95325.91;;;26.54;42.01
48794;BME280;34589;42.306;23.858;2022-08-19T20:22:40;95315.09;;;26.34;42.02
48794;BME280;34589;42.306;23.858;2022-08-19T20:24:18;95311.09;;;26.31;42.11
48794;BME280;34589;42.306;23.858;2022-08-19T20:25:52;95332.06;;;26.27;42.63
48794;BME280;34589;42.306;23.858;2022-08-19T20:27:26;95319.16;;;26.14;42.79
48794;BME280;34589;42.306;23.858;2022-08-19T20:29:02;95324.44;;;26.09;42.92
48794;BME280;34589;42.306;23.858;2022-08-19T20:30:54;95328.41;;;26.06;43.45
48794;BME280;34589;42.306;23.858;2022-08-19T20:32:27;95325.75;;;26.06;43.28
48794;BME280;34589;42.306;23.858;2022-08-19T20:34:01;95326.00;;;26.05;43.00
48794;BME280;34589;42.306;23.858;2022-08-19T20:35:34;95326.84;;;25.88;43.50
48794;BME280;34589;42.306;23.858;2022-08-19T20:37:07;95328.41;;;25.84;43.51
48794;BME280;34589;42.306;23.858;2022-08-19T20:38:40;95329.25;;;25.90;43.34
48794;BME280;34589;42.306;23.858;2022-08-19T20:40:12;95324.66;;;25.85;43.26
48794;BME280;34589;42.306;23.858;2022-08-19T20:41:44;95329.94;;;25.80;43.81
48794;BME280;34589;42.306;23.858;2022-08-19T20:43:17;95328.25;;;25.74;43.94
48794;BME280;34589;42.306;23.858;2022-08-19T20:44:50;95337.84;;;25.75;43.48
48794;BME280;34589;42.306;23.858;2022-08-19T20:46:22;95334.09;;;25.71;43.97
48794;BME280;34589;42.306;23.858;2022-08-19T20:47:55;95344.41;;;25.67;43.77
48794;BME280;34589;42.306;23.858;2022-08-19T20:49:27;95338.03;;;25.68;43.81
48794;BME280;34589;42.306;23.858;2022-08-19T20:51:01;95338.84;;;25.69;43.64
48794;BME280;34589;42.306;23.858;2022-08-19T20:52:34;95342.50;;;25.63;43.73
48794;BME280;34589;42.306;23.858;2022-08-19T20:54:07;95331.97;;;25.51;44.06
48794;BME280;34589;42.306;23.858;2022-08-19T20:55:41;95344.19;;;25.52;43.97
48794;BME280;34589;42.306;23.858;2022-08-19T20:57:14;95340.50;;;25.53;43.77
48794;BME280;34589;42.306;23.858;2022-08-19T20:58:47;95341.53;;;25.52;44.41
48794;BME280;34589;42.306;23.858;2022-08-19T21:00:25;95342.03;;;25.49;44.06
48794;BME280;34589;42.306;23.858;2022-08-19T21:01:59;95343.41;;;25.51;43.78
48794;BME280;34589;42.306;23.858;2022-08-19T21:03:34;95342.38;;;25.52;43.46
48794;BME280;34589;42.306;23.858;2022-08-19T21:05:14;95343.22;;;25.58;43.40
48794;BME280;34589;42.306;23.858;2022-08-19T21:06:47;95335.81;;;25.60;43.25
48794;BME280;34589;42.306;23.858;2022-08-19T21:08:19;95337.19;;;25.63;43.63
48794;BME280;34589;42.306;23.858;2022-08-19T21:09:51;95344.66;;;25.66;43.21
48794;BME280;34589;42.306;23.858;2022-08-19T21:11:24;95332.66;;;25.63;43.42
48794;BME280;34589;42.306;23.858;2022-08-19T21:12:56;95347.88;;;25.68;42.93
48794;BME280;34589;42.306;23.858;2022-08-19T21:14:28;95347.56;;;25.64;43.22
48794;BME280;34589;42.306;23.858;2022-08-19T21:16:00;95345.16;;;25.63;43.47
48794;BME280;34589;42.306;23.858;2022-08-19T21:17:35;95349.34;;;25.59;42.99
48794;BME280;34589;42.306;23.858;2022-08-19T21:19:08;95346.88;;;25.52;43.58
48794;BME280;34589;42.306;23.858;2022-08-19T21:20:41;95349.75;;;25.50;43.87
48794;BME280;34589;42.306;23.858;2022-08-19T21:22:14;95350.75;;;25.44;43.93
48794;BME280;34589;42.306;23.858;2022-08-19T21:23:47;95359.09;;;25.31;44.06
48794;BME280;34589;42.306;23.858;2022-08-19T21:25:20;95360.25;;;25.23;44.55
48794;BME280;34589;42.306;23.858;2022-08-19T21:26:54;95367.19;;;25.24;44.46
48794;BME280;34589;42.306;23.858;2022-08-19T21:28:26;95363.25;;;25.27;44.74
48794;BME280;34589;42.306;23.858;2022-08-19T21:30:06;95363.25;;;25.27;44.47
48794;BME280;34589;42.306;23.858;2022-08-19T21:31:40;95366.00;;;25.32;44.38
48794;BME280;34589;42.306;23.858;2022-08-19T21:33:12;95359.16;;;25.36;43.84
48794;BME280;34589;42.306;23.858;2022-08-19T21:34:46;95358.16;;;25.25;44.26
48794;BME280;34589;42.306;23.858;2022-08-19T21:36:19;95363.16;;;25.22;44.26
48794;BME280;34589;42.306;23.858;2022-08-19T21:37:52;95364.16;;;25.15;44.37
48794;BME280;34589;42.306;23.858;2022-08-19T21:39:24;95372.28;;;25.09;45.12
48794;BME280;34589;42.306;23.858;2022-08-19T21:40:57;95363.19;;;25.05;44.54
48794;BME280;34589;42.306;23.858;2022-08-19T21:42:34;95368.09;;;24.96;44.92
48794;BME280;34589;42.306;23.858;2022-08-19T21:44:07;95370.75;;;24.96;45.18
48794;BME280;34589;42.306;23.858;2022-08-19T21:45:40;95366.41;;;24.90;45.66
48794;BME280;34589;42.306;23.858;2022-08-19T21:47:13;95364.81;;;24.89;45.64
48794;BME280;34589;42.306;23.858;2022-08-19T21:48:45;95361.31;;;24.71;46.43
48794;BME280;34589;42.306;23.858;2022-08-19T21:50:19;95366.63;;;24.71;46.25
48794;BME280;34589;42.306;23.858;2022-08-19T21:51:51;95367.88;;;24.80;45.56
48794;BME280;34589;42.306;23.858;2022-08-19T21:53:24;95360.38;;;24.77;45.57
48794;BME280;34589;42.306;23.858;2022-08-19T21:55:05;95376.31;;;24.77;46.16
48794;BME280;34589;42.306;23.858;2022-08-19T21:56:37;95367.53;;;24.77;46.20
48794;BME280;34589;42.306;23.858;2022-08-19T21:58:11;95375.84;;;24.80;45.78
48794;BME280;34589;42.306;23.858;2022-08-19T21:59:45;95368.91;;;24.79;45.68
48794;BME280;34589;42.306;23.858;2022-08-19T22:01:17;95375.31;;;24.84;45.54
48794;BME280;34589;42.306;23.858;2022-08-19T22:02:50;95373.81;;;24.88;45.08
48794;BME280;34589;42.306;23.858;2022-08-19T22:04:23;95382.41;;;24.95;44.93
48794;BME280;34589;42.306;23.858;2022-08-19T22:05:56;95371.47;;;24.91;45.42
48794;BME280;34589;42.306;23.858;2022-08-19T22:07:29;95375.16;;;24.90;44.85
48794;BME280;34589;42.306;23.858;2022-08-19T22:09:04;95373.34;;;24.91;45.06
48794;BME280;34589;42.306;23.858;2022-08-19T22:10:37;95374.13;;;24.91;45.01
48794;BME280;34589;42.306;23.858;2022-08-19T22:12:18;95380.63;;;24.84;45.05
48794;BME280;34589;42.306;23.858;2022-08-19T22:13:52;95381.94;;;24.64;45.85
48794;BME280;34589;42.306;23.858;2022-08-19T22:15:25;95379.81;;;24.66;45.58
48794;BME280;34589;42.306;23.858;2022-08-19T22:16:59;95379.66;;;24.56;46.09
48794;BME280;34589;42.306;23.858;2022-08-19T22:18:32;95375.81;;;24.52;46.25
48794;BME280;34589;42.306;23.858;2022-08-19T22:20:06;95374.00;;;24.52;45.93
48794;BME280;34589;42.306;23.858;2022-08-19T22:21:40;95371.56;;;24.51;46.28
48794;BME280;34589;42.306;23.858;2022-08-19T22:23:13;95374.63;;;24.42;46.14
48794;BME280;34589;42.306;23.858;2022-08-19T22:24:45;95372.53;;;24.44;46.21
48794;BME280;34589;42.306;23.858;2022-08-19T22:26:18;95368.06;;;24.33;46.75
48794;BME280;34589;42.306;23.858;2022-08-19T22:27:50;95368.78;;;24.29;46.84
48794;BME280;34589;42.306;23.858;2022-08-19T22:29:27;95369.34;;;24.31;46.78
48794;BME280;34589;42.306;23.858;2022-08-19T22:31:05;95364.94;;;24.36;46.23
48794;BME280;34589;42.306;23.858;2022-08-19T22:32:42;95367.81;;;24.35;46.74
48794;BME280;34589;42.306;23.858;2022-08-19T22:34:15;95363.59;;;24.34;46.94
48794;BME280;34589;42.306;23.858;2022-08-19T22:35:48;95361.16;;;24.32;46.50
48794;BME280;34589;42.306;23.858;2022-08-19T22:37:23;95364.28;;;24.29;46.87
48794;BME280;34589;42.306;23.858;2022-08-19T22:38:55;95354.63;;;24.23;47.42
48794;BME280;34589;42.306;23.858;2022-08-19T22:40:28;95361.06;;;24.27;46.80
48794;BME280;34589;42.306;23.858;2022-08-19T22:42:02;95357.34;;;24.28;46.96
48794;BME280;34589;42.306;23.858;2022-08-19T22:43:35;95349.63;;;24.26;46.70
48794;BME280;34589;42.306;23.858;2022-08-19T22:45:09;95342.81;;;24.31;46.75
48794;BME280;34589;42.306;23.858;2022-08-19T22:46:42;95347.41;;;24.35;46.46
48794;BME280;34589;42.306;23.858;2022-08-19T22:48:15;95351.03;;;24.29;46.88
48794;BME280;34589;42.306;23.858;2022-08-19T22:49:48;95345.63;;;24.24;47.28
48794;BME280;34589;42.306;23.858;2022-08-19T22:51:20;95332.34;;;24.24;47.23
48794;BME280;34589;42.306;23.858;2022-08-19T22:53:11;95334.34;;;24.17;47.09
48794;BME280;34589;42.306;23.858;2022-08-19T22:54:54;95338.97;;;24.10;47.76
48794;BME280;34589;42.306;23.858;2022-08-19T22:56:27;95338.19;;;24.09;47.82
48794;BME280;34589;42.306;23.858;2022-08-19T22:57:59;95335.28;;;24.11;47.83
48794;BME280;34589;42.306;23.858;2022-08-19T22:59:31;95334.97;;;24.07;47.71
48794;BME280;34589;42.306;23.858;2022-08-19T23:01:03;95338.56;;;24.01;47.34
48794;BME280;34589;42.306;23.858;2022-08-19T23:02:37;95337.09;;;23.93;47.83
48794;BME280;34589;42.306;23.858;2022-08-19T23:04:22;95336.97;;;23.88;48.01
48794;BME280;34589;42.306;23.858;2022-08-19T23:05:54;95332.81;;;23.92;47.58
48794;BME280;34589;42.306;23.858;2022-08-19T23:07:27;95330.19;;;23.92;47.25
48794;BME280;34589;42.306;23.858;2022-08-19T23:09:02;95334.63;;;24.03;46.85
48794;BME280;34589;42.306;23.858;2022-08-19T23:10:35;95326.78;;;24.08;47.08
48794;BME280;34589;42.306;23.858;2022-08-19T23:12:08;95329.91;;;24.05;47.25
48794;BME280;34589;42.306;23.858;2022-08-19T23:13:40;95333.13;;;24.07;47.00
48794;BME280;34589;42.306;23.858;2022-08-19T23:16:46;95321.97;;;23.94;47.54
48794;BME280;34589;42.306;23.858;2022-08-19T23:18:22;95326.59;;;23.98;47.35
48794;BME280;34589;42.306;23.858;2022-08-19T23:19:55;95324.81;;;24.04;46.86
48794;BME280;34589;42.306;23.858;2022-08-19T23:21:27;95319.38;;;24.11;46.64
48794;BME280;34589;42.306;23.858;2022-08-19T23:23:02;95319.38;;;24.11;46.88
48794;BME280;34589;42.306;23.858;2022-08-19T23:24:35;95321.38;;;24.03;47.17